Hernando Beach, Florida
Current Conditions -  °F | °C
As of 5:53 PM on Saturday 22 Nov 2014 (Local Time) from KBKV Reporting Station
Overcast Overcast  
Wind Chill: 69°   Ceiling: 1200
Heat Index: 69°   Visibility: 10mi
Dew Point: 66°   Wind: 13mph
Humidity: 90%   Direction: 80°E
Pressure: 30.12"   Gusts: NA
Location:  28.4982°N, 82.633°W
Report Text: KBKV 222253Z AUTO 08011KT 10SM OVC012 21/19 A3012 RMK AO2 SLP197 T02060189
Loading
Personal Weather Stations






























Interactive Weather Map New forecast layout! Learn more

10-Day Weather Forecast

Advertisements
Track Severe Weather on mobile